Time;durP1;ratioP1;P1;durP2;ratioP2;P2;SDS_P1;SDS_P2;PMS_P1;PMS_P2;Temp;Humidity;BMP_temperature;BMP_pressure;BME280_temperature;BME280_humidity;BME280_pressure;Samples;Min_cycle;Max_cycle;Signal;HPM_P1;HPM_P2
2023/10/24 00:01:19;;;;;;;6.35;3.70;;;;;;;;;;5055330;28;20025;-73
2023/10/24 00:03:45;;;;;;;7.85;3.00;;;;;;;;;;5055879;28;20036;-73
2023/10/24 00:06:11;;;;;;;9.20;3.20;;;;;;;;;;5055658;28;20025;-72
2023/10/24 00:08:38;;;;;;;4.35;2.95;;;;;;;;;;5055611;28;20085;-73
2023/10/24 00:11:05;;;;;;;6.07;3.22;;;;;;;;;;5055537;28;20059;-73
2023/10/24 00:13:31;;;;;;;10.40;3.47;;;;;;;;;;5055457;28;20035;-73
2023/10/24 00:15:58;;;;;;;6.70;3.35;;;;;;;;;;5055102;28;20021;-73
2023/10/24 00:18:25;;;;;;;7.85;3.20;;;;;;;;;;5055589;28;20021;-73
2023/10/24 00:20:52;;;;;;;6.70;3.22;;;;;;;;;;5055587;28;20074;-73
2023/10/24 00:23:18;;;;;;;4.65;2.55;;;;;;;;;;5055464;28;20021;-73
2023/10/24 00:25:45;;;;;;;7.53;2.55;;;;;;;;;;5055436;28;20021;-73
2023/10/24 00:28:11;;;;;;;7.80;2.65;;;;;;;;;;5055074;28;20043;-72
2023/10/24 00:30:39;;;;;;;8.52;2.70;;;;;;;;;;5054783;28;20014;-73
2023/10/24 00:33:05;;;;;;;8.57;2.75;;;;;;;;;;5055415;28;20033;-72
2023/10/24 00:35:33;;;;;;;7.30;2.75;;;;;;;;;;5055363;28;20033;-73
2023/10/24 00:37:59;;;;;;;6.68;2.55;;;;;;;;;;5055072;28;20029;-73
2023/10/24 00:40:26;;;;;;;7.72;2.80;;;;;;;;;;5055205;28;20019;-73
2023/10/24 00:42:52;;;;;;;4.30;2.70;;;;;;;;;;5054977;28;20021;-73
2023/10/24 00:45:19;;;;;;;8.52;2.95;;;;;;;;;;5054751;28;20021;-73
2023/10/24 00:47:45;;;;;;;5.10;2.20;;;;;;;;;;5054862;28;20037;-72
2023/10/24 00:50:15;;;;;;;8.25;3.03;;;;;;;;;;5054230;28;20021;-73
2023/10/24 00:52:45;;;;;;;6.50;3.50;;;;;;;;;;5053696;28;20032;-73
2023/10/24 00:55:13;;;;;;;11.93;3.20;;;;;;;;;;5054803;28;20023;-73
2023/10/24 00:57:39;;;;;;;9.55;3.50;;;;;;;;;;5054917;28;20021;-73
2023/10/24 01:00:06;;;;;;;7.03;3.35;;;;;;;;;;5054347;28;20367;-73
2023/10/24 01:02:33;;;;;;;8.18;3.47;;;;;;;;;;5054701;28;20033;-72
2023/10/24 01:05:00;;;;;;;21.20;4.28;;;;;;;;;;5054792;28;20021;-73
2023/10/24 01:07:26;;;;;;;7.85;3.72;;;;;;;;;;5054641;28;20029;-73
2023/10/24 01:09:53;;;;;;;12.05;3.83;;;;;;;;;;5054639;28;20017;-73
2023/10/24 01:12:19;;;;;;;11.45;4.00;;;;;;;;;;5054493;28;20501;-73
2023/10/24 01:14:45;;;;;;;9.40;3.85;;;;;;;;;;5054327;28;20024;-73
2023/10/24 01:17:12;;;;;;;9.98;4.45;;;;;;;;;;5054458;28;20541;-73
2023/10/24 01:19:39;;;;;;;8.27;4.90;;;;;;;;;;5054224;28;20028;-73
2023/10/24 01:22:06;;;;;;;8.07;4.85;;;;;;;;;;5054310;28;20504;-73
2023/10/24 01:24:32;;;;;;;8.35;4.30;;;;;;;;;;5054189;28;20021;-72
2023/10/24 01:26:59;;;;;;;10.60;4.18;;;;;;;;;;5053748;28;20025;-73
2023/10/24 01:29:25;;;;;;;12.25;4.30;;;;;;;;;;5054366;28;20021;-73
2023/10/24 01:31:51;;;;;;;11.48;4.80;;;;;;;;;;5054176;28;20028;-73
2023/10/24 01:34:18;;;;;;;8.50;4.32;;;;;;;;;;5054188;28;20051;-73
2023/10/24 01:36:44;;;;;;;9.32;3.72;;;;;;;;;;5054104;28;20027;-73
2023/10/24 01:39:14;;;;;;;7.35;4.13;;;;;;;;;;5054176;28;20036;-72
2023/10/24 01:41:42;;;;;;;7.75;3.53;;;;;;;;;;5053551;28;20029;-73
2023/10/24 01:44:08;;;;;;;7.97;3.63;;;;;;;;;;5054099;28;20032;-73
2023/10/24 01:46:35;;;;;;;10.85;3.50;;;;;;;;;;5053744;28;20094;-73
2023/10/24 01:49:01;;;;;;;8.45;4.35;;;;;;;;;;5053755;28;20050;-73
2023/10/24 01:51:28;;;;;;;10.80;3.88;;;;;;;;;;5053711;28;20031;-73
2023/10/24 01:53:55;;;;;;;14.25;4.15;;;;;;;;;;5053659;28;20025;-73
2023/10/24 01:56:21;;;;;;;6.57;4.50;;;;;;;;;;5053250;28;20025;-73
2023/10/24 01:58:47;;;;;;;10.02;4.55;;;;;;;;;;5053645;28;20045;-73
2023/10/24 02:01:14;;;;;;;8.60;4.53;;;;;;;;;;5052471;28;20043;-73
2023/10/24 02:03:41;;;;;;;8.43;4.18;;;;;;;;;;5053253;28;20150;-73
2023/10/24 02:06:07;;;;;;;6.50;4.05;;;;;;;;;;5053582;28;20017;-73
2023/10/24 02:08:34;;;;;;;8.18;4.13;;;;;;;;;;5053345;28;20519;-73
2023/10/24 02:11:00;;;;;;;7.35;4.35;;;;;;;;;;5052976;28;20028;-73
2023/10/24 02:13:27;;;;;;;5.43;3.90;;;;;;;;;;5053225;28;20028;-73
2023/10/24 02:15:54;;;;;;;8.73;3.58;;;;;;;;;;5053194;28;20388;-73
2023/10/24 02:18:20;;;;;;;6.82;4.32;;;;;;;;;;5053460;28;20043;-73
2023/10/24 02:20:46;;;;;;;9.30;4.47;;;;;;;;;;5053447;28;20035;-73
2023/10/24 02:23:13;;;;;;;9.85;3.90;;;;;;;;;;5053262;28;20086;-73
2023/10/24 02:25:39;;;;;;;6.85;4.55;;;;;;;;;;5052754;28;20090;-73
2023/10/24 02:28:05;;;;;;;7.95;4.60;;;;;;;;;;5052843;28;20047;-73
2023/10/24 02:30:32;;;;;;;9.50;4.85;;;;;;;;;;5052833;28;20397;-73
2023/10/24 02:33:01;;;;;;;10.02;4.60;;;;;;;;;;5052832;28;20028;-73
2023/10/24 02:35:28;;;;;;;6.63;4.07;;;;;;;;;;5052861;28;20027;-73
2023/10/24 02:37:55;;;;;;;8.10;4.72;;;;;;;;;;5053065;28;20040;-73
2023/10/24 02:40:21;;;;;;;8.05;3.97;;;;;;;;;;5052620;28;20028;-73
2023/10/24 02:42:47;;;;;;;11.40;3.85;;;;;;;;;;5052948;28;20440;-73
2023/10/24 02:45:14;;;;;;;11.30;4.35;;;;;;;;;;5053095;28;20035;-73
2023/10/24 02:47:40;;;;;;;11.52;3.95;;;;;;;;;;5052582;28;20490;-73
2023/10/24 02:50:07;;;;;;;7.95;4.40;;;;;;;;;;5053111;28;20033;-73
2023/10/24 02:52:33;;;;;;;11.30;4.32;;;;;;;;;;5052613;28;20013;-73
2023/10/24 02:55:00;;;;;;;9.23;3.58;;;;;;;;;;5052225;28;20066;-73
2023/10/24 02:57:27;;;;;;;6.70;4.07;;;;;;;;;;5052418;28;20027;-73
2023/10/24 02:59:54;;;;;;;5.60;2.97;;;;;;;;;;5052975;28;20055;-73
2023/10/24 03:02:20;;;;;;;6.53;3.80;;;;;;;;;;5052460;28;20474;-72
2023/10/24 03:04:46;;;;;;;9.95;4.40;;;;;;;;;;5052836;28;20028;-73
2023/10/24 03:07:12;;;;;;;9.30;4.35;;;;;;;;;;5052385;28;20043;-73
2023/10/24 03:09:39;;;;;;;8.63;3.63;;;;;;;;;;5052175;28;20021;-73
2023/10/24 03:12:09;;;;;;;5.63;3.60;;;;;;;;;;5054640;28;20051;-73
2023/10/24 03:14:36;;;;;;;5.13;3.55;;;;;;;;;;5059121;28;20031;-73
2023/10/24 03:17:02;;;;;;;5.88;2.90;;;;;;;;;;5058938;28;20037;-73
2023/10/24 03:19:29;;;;;;;2.67;2.20;;;;;;;;;;5059038;28;20036;-74
2023/10/24 03:21:55;;;;;;;6.13;2.92;;;;;;;;;;5059278;28;20021;-74
2023/10/24 03:24:21;;;;;;;5.22;2.65;;;;;;;;;;5058662;28;20078;-73
2023/10/24 03:26:48;;;;;;;3.72;2.30;;;;;;;;;;5059177;28;20025;-73
2023/10/24 03:29:14;;;;;;;7.88;2.58;;;;;;;;;;5058833;28;20025;-73
2023/10/24 03:31:40;;;;;;;3.90;2.55;;;;;;;;;;5058732;28;20032;-73
2023/10/24 03:34:07;;;;;;;5.63;2.92;;;;;;;;;;5059313;28;20036;-73
2023/10/24 03:36:51;;;;;;;5.55;3.10;;;;;;;;;;5059250;28;20484;-73
2023/10/24 03:39:18;;;;;;;4.22;3.33;;;;;;;;;;5058620;28;20029;-73
2023/10/24 03:41:44;;;;;;;6.95;3.05;;;;;;;;;;5058746;28;20488;-73
2023/10/24 03:44:10;;;;;;;6.10;2.75;;;;;;;;;;5059087;28;20074;-73
2023/10/24 03:46:37;;;;;;;5.03;3.70;;;;;;;;;;5059024;28;20023;-73
2023/10/24 03:49:03;;;;;;;7.68;3.70;;;;;;;;;;5058769;28;20401;-73
2023/10/24 03:51:29;;;;;;;5.68;3.78;;;;;;;;;;5058938;28;20031;-74
2023/10/24 03:53:56;;;;;;;6.03;3.97;;;;;;;;;;5058707;28;20043;-73
2023/10/24 03:56:22;;;;;;;4.85;3.58;;;;;;;;;;5059073;28;20029;-73
2023/10/24 03:58:48;;;;;;;10.02;2.58;;;;;;;;;;5058573;28;20063;-73
2023/10/24 04:01:15;;;;;;;5.20;2.95;;;;;;;;;;5059020;28;20054;-73
2023/10/24 04:03:41;;;;;;;6.82;2.63;;;;;;;;;;5058552;28;20035;-73
2023/10/24 04:06:11;;;;;;;4.13;2.40;;;;;;;;;;5058679;28;20025;-74
2023/10/24 04:08:37;;;;;;;6.53;2.20;;;;;;;;;;5058286;28;20414;-73
2023/10/24 04:11:04;;;;;;;5.00;2.30;;;;;;;;;;5058611;28;20019;-73
2023/10/24 04:13:30;;;;;;;4.40;2.17;;;;;;;;;;5058859;28;20029;-73
2023/10/24 04:15:59;;;;;;;2.00;1.80;;;;;;;;;;5058621;28;20027;-74
2023/10/24 04:18:27;;;;;;;3.88;2.10;;;;;;;;;;5058442;28;20031;-73
2023/10/24 04:20:53;;;;;;;2.88;1.95;;;;;;;;;;5057088;28;20017;-74
2023/10/24 04:23:19;;;;;;;5.03;2.53;;;;;;;;;;5056951;28;20025;-73
2023/10/24 04:25:46;;;;;;;4.53;2.60;;;;;;;;;;5055323;28;20025;-73
2023/10/24 04:28:12;;;;;;;6.75;2.70;;;;;;;;;;5055190;28;20029;-73
2023/10/24 04:30:39;;;;;;;6.82;3.00;;;;;;;;;;5055219;28;20025;-73
2023/10/24 04:33:06;;;;;;;8.75;3.90;;;;;;;;;;5055239;28;20025;-73
2023/10/24 04:35:33;;;;;;;5.55;3.17;;;;;;;;;;5054978;28;20021;-73
2023/10/24 04:37:59;;;;;;;13.07;3.47;;;;;;;;;;5055263;28;20466;-73
2023/10/24 04:40:25;;;;;;;8.45;3.40;;;;;;;;;;5055282;28;20029;-73
2023/10/24 04:42:52;;;;;;;6.07;2.97;;;;;;;;;;5055313;28;20029;-73
2023/10/24 04:45:18;;;;;;;4.97;3.40;;;;;;;;;;5055094;28;20025;-74
2023/10/24 04:47:44;;;;;;;5.95;3.38;;;;;;;;;;5054910;28;20487;-73
2023/10/24 04:50:13;;;;;;;7.78;3.22;;;;;;;;;;5054905;28;20039;-73
2023/10/24 04:52:39;;;;;;;4.50;2.40;;;;;;;;;;5054861;28;20028;-74
2023/10/24 04:55:06;;;;;;;3.92;2.70;;;;;;;;;;5054949;28;20025;-73
2023/10/24 04:57:32;;;;;;;4.97;2.40;;;;;;;;;;5054513;28;20074;-73
2023/10/24 04:59:59;;;;;;;2.65;1.80;;;;;;;;;;5054809;28;20048;-73
2023/10/24 05:02:25;;;;;;;3.75;1.80;;;;;;;;;;5054884;28;20029;-73
2023/10/24 05:04:51;;;;;;;3.92;2.00;;;;;;;;;;5054268;28;20092;-73
2023/10/24 05:07:18;;;;;;;2.83;1.80;;;;;;;;;;5054685;28;20043;-74
2023/10/24 05:09:44;;;;;;;4.78;2.42;;;;;;;;;;5054686;28;20021;-73
2023/10/24 05:12:10;;;;;;;3.95;1.92;;;;;;;;;;5054620;28;20358;-74
2023/10/24 05:14:37;;;;;;;7.65;2.35;;;;;;;;;;5054373;28;20028;-73
2023/10/24 05:17:04;;;;;;;7.05;2.70;;;;;;;;;;5054628;28;20486;-73
2023/10/24 05:19:31;;;;;;;9.73;2.25;;;;;;;;;;5054037;28;20055;-73
2023/10/24 05:21:57;;;;;;;6.20;2.90;;;;;;;;;;5054550;28;20017;-74
2023/10/24 05:24:23;;;;;;;6.60;2.30;;;;;;;;;;5054490;28;20025;-73
2023/10/24 05:26:49;;;;;;;3.97;1.88;;;;;;;;;;5054224;28;20017;-73
2023/10/24 05:29:16;;;;;;;3.47;1.90;;;;;;;;;;5054323;28;20024;-73
2023/10/24 05:31:42;;;;;;;6.43;1.92;;;;;;;;;;5054001;28;20028;-73
2023/10/24 05:34:08;;;;;;;4.80;1.80;;;;;;;;;;5053717;28;20023;-73
2023/10/24 05:36:35;;;;;;;4.30;1.92;;;;;;;;;;5053904;28;20020;-73
2023/10/24 05:39:01;;;;;;;4.13;2.45;;;;;;;;;;5054209;28;20474;-73
2023/10/24 05:41:27;;;;;;;6.40;2.42;;;;;;;;;;5053944;28;20027;-73
2023/10/24 05:43:55;;;;;;;6.68;2.90;;;;;;;;;;5054185;28;20017;-73
2023/10/24 05:46:21;;;;;;;4.60;3.10;;;;;;;;;;5054026;28;20079;-73
2023/10/24 05:48:48;;;;;;;6.88;2.90;;;;;;;;;;5053543;28;20045;-73
2023/10/24 05:51:24;;;;;;;6.57;3.40;;;;;;;;;;5053720;28;20025;-73
2023/10/24 05:53:50;;;;;;;7.40;3.83;;;;;;;;;;5052778;28;20028;-73
2023/10/24 05:56:17;;;;;;;7.80;4.78;;;;;;;;;;5053637;28;20029;-73
2023/10/24 05:58:44;;;;;;;12.40;5.20;;;;;;;;;;5053497;28;20043;-73
2023/10/24 06:01:11;;;;;;;7.82;4.13;;;;;;;;;;5053781;28;20029;-73
2023/10/24 06:03:37;;;;;;;8.43;4.20;;;;;;;;;;5051850;28;20025;-73
2023/10/24 06:06:04;;;;;;;6.22;3.97;;;;;;;;;;5053713;28;20055;-73
2023/10/24 06:08:30;;;;;;;6.40;4.00;;;;;;;;;;5053338;28;20036;-73
2023/10/24 06:11:00;;;;;;;7.13;5.05;;;;;;;;;;5053391;28;20021;-73
2023/10/24 06:13:27;;;;;;;6.35;3.83;;;;;;;;;;5053544;28;20029;-73
2023/10/24 06:15:53;;;;;;;9.98;3.83;;;;;;;;;;5048085;28;20393;-74
2023/10/24 06:18:20;;;;;;;6.10;4.30;;;;;;;;;;5051823;28;20025;-73
2023/10/24 06:20:47;;;;;;;5.20;4.13;;;;;;;;;;5052736;28;20025;-74
2023/10/24 06:23:13;;;;;;;5.80;4.25;;;;;;;;;;5047817;28;20036;-72
2023/10/24 06:25:41;;;;;;;9.60;4.88;;;;;;;;;;5052082;28;20033;-72
2023/10/24 06:28:07;;;;;;;24.23;11.43;;;;;;;;;;5045848;28;20040;-73
2023/10/24 06:30:34;;;;;;;25.50;13.57;;;;;;;;;;5047796;28;20401;-73
2023/10/24 06:33:01;;;;;;;30.23;13.93;;;;;;;;;;5048639;28;20033;-74
2023/10/24 06:35:27;;;;;;;26.25;13.30;;;;;;;;;;5051504;28;20021;-73
2023/10/24 06:37:53;;;;;;;16.85;10.30;;;;;;;;;;5052160;28;20385;-73
2023/10/24 06:40:20;;;;;;;23.63;11.30;;;;;;;;;;5050959;28;20401;-74
2023/10/24 06:42:46;;;;;;;20.50;8.27;;;;;;;;;;5049142;28;20025;-73
2023/10/24 06:45:12;;;;;;;21.80;11.23;;;;;;;;;;5045183;28;20033;-72
2023/10/24 06:47:39;;;;;;;20.25;11.10;;;;;;;;;;5030743;28;20029;-73
2023/10/24 06:50:05;;;;;;;18.38;7.70;;;;;;;;;;5037777;28;20020;-73
2023/10/24 06:52:32;;;;;;;23.63;6.75;;;;;;;;;;5051195;28;20029;-73
2023/10/24 06:54:58;;;;;;;9.77;4.75;;;;;;;;;;5049863;28;20024;-74
2023/10/24 06:57:25;;;;;;;8.20;3.90;;;;;;;;;;5047400;28;20021;-73
2023/10/24 06:59:51;;;;;;;9.20;4.10;;;;;;;;;;5042009;28;20055;-74
2023/10/24 07:02:18;;;;;;;5.53;3.83;;;;;;;;;;5050031;28;20035;-73
2023/10/24 07:04:44;;;;;;;11.63;4.07;;;;;;;;;;5048247;28;20081;-73
2023/10/24 07:07:10;;;;;;;8.82;3.67;;;;;;;;;;5049324;28;20488;-73
2023/10/24 07:09:37;;;;;;;10.38;4.35;;;;;;;;;;5050811;28;20024;-74
2023/10/24 07:12:03;;;;;;;14.70;4.75;;;;;;;;;;5050139;28;20059;-74
2023/10/24 07:14:29;;;;;;;13.88;4.65;;;;;;;;;;5033357;28;20033;-73
2023/10/24 07:16:56;;;;;;;11.60;4.07;;;;;;;;;;5031440;28;20029;-73
2023/10/24 07:19:22;;;;;;;7.90;3.50;;;;;;;;;;5042673;28;20751;-74
2023/10/24 07:21:48;;;;;;;15.77;4.38;;;;;;;;;;5047869;28;20037;-73
2023/10/24 07:24:14;;;;;;;12.60;3.95;;;;;;;;;;5051107;28;20032;-74
2023/10/24 07:26:41;;;;;;;6.20;3.80;;;;;;;;;;5050487;28;20029;-75
2023/10/24 07:29:07;;;;;;;13.68;5.40;;;;;;;;;;5045531;28;20055;-75
2023/10/24 07:31:33;;;;;;;7.28;4.85;;;;;;;;;;5050156;28;20039;-75
2023/10/24 07:34:00;;;;;;;8.15;5.05;;;;;;;;;;5048929;28;20405;-76
2023/10/24 07:36:30;;;;;;;17.90;10.27;;;;;;;;;;5049909;28;20048;-77
2023/10/24 07:39:00;;;;;;;14.63;8.82;;;;;;;;;;5045064;28;20504;-75
2023/10/24 07:41:26;;;;;;;11.68;6.28;;;;;;;;;;5048055;28;20029;-75
2023/10/24 07:43:53;;;;;;;16.63;7.30;;;;;;;;;;5040535;28;20025;-75
2023/10/24 07:46:19;;;;;;;10.25;7.30;;;;;;;;;;5032294;28;20440;-74
2023/10/24 07:48:49;;;;;;;8.40;5.82;;;;;;;;;;5030776;28;20035;-75
2023/10/24 07:51:16;;;;;;;10.23;6.15;;;;;;;;;;5039925;28;20019;-75
2023/10/24 07:53:42;;;;;;;12.55;6.05;;;;;;;;;;5043074;28;20030;-75
2023/10/24 07:56:08;;;;;;;13.43;6.13;;;;;;;;;;5049825;28;20494;-75
2023/10/24 07:58:34;;;;;;;13.38;5.40;;;;;;;;;;5050696;28;20056;-75
2023/10/24 08:01:01;;;;;;;13.60;5.95;;;;;;;;;;5052549;28;20032;-75
2023/10/24 08:03:27;;;;;;;10.32;5.63;;;;;;;;;;5054461;28;20486;-75
2023/10/24 08:05:53;;;;;;;12.20;5.60;;;;;;;;;;5054364;28;20029;-75
2023/10/24 08:08:20;;;;;;;10.77;5.85;;;;;;;;;;5054019;28;20037;-74
2023/10/24 08:10:46;;;;;;;9.77;5.72;;;;;;;;;;5046288;28;20022;-75
2023/10/24 08:13:12;;;;;;;8.30;5.88;;;;;;;;;;5046049;28;20035;-74
2023/10/24 08:15:39;;;;;;;11.73;6.05;;;;;;;;;;5051781;28;20032;-76
2023/10/24 08:18:05;;;;;;;11.65;6.15;;;;;;;;;;5054022;28;20025;-75
2023/10/24 08:20:31;;;;;;;7.43;3.80;;;;;;;;;;5053341;28;20496;-75
2023/10/24 08:22:58;;;;;;;8.18;4.20;;;;;;;;;;5049236;28;20021;-74
2023/10/24 08:25:24;;;;;;;9.70;3.67;;;;;;;;;;5049404;28;20035;-75
2023/10/24 08:27:50;;;;;;;4.32;3.08;;;;;;;;;;5053344;28;20036;-75
2023/10/24 08:30:17;;;;;;;5.90;2.47;;;;;;;;;;5050271;28;20020;-75
2023/10/24 08:32:43;;;;;;;1.30;1.20;;;;;;;;;;5033942;28;20052;-75
2023/10/24 08:35:09;;;;;;;2.22;0.82;;;;;;;;;;5035718;28;20082;-75
2023/10/24 08:37:36;;;;;;;2.08;1.00;;;;;;;;;;5045824;28;20025;-75
2023/10/24 08:40:03;;;;;;;1.30;0.85;;;;;;;;;;5053928;28;20025;-75
2023/10/24 08:42:30;;;;;;;1.33;1.00;;;;;;;;;;5053188;28;20031;-75
2023/10/24 08:44:57;;;;;;;3.60;1.42;;;;;;;;;;5053695;28;20493;-75
2023/10/24 08:47:24;;;;;;;3.15;1.33;;;;;;;;;;5051983;28;20037;-75
2023/10/24 08:49:50;;;;;;;3.83;1.30;;;;;;;;;;5051060;28;20017;-75
2023/10/24 08:52:17;;;;;;;1.33;1.10;;;;;;;;;;5034056;28;20029;-75
2023/10/24 08:54:44;;;;;;;2.58;1.10;;;;;;;;;;5033885;28;20026;-75
2023/10/24 08:57:11;;;;;;;1.60;1.20;;;;;;;;;;5040351;28;20416;-75
2023/10/24 08:59:40;;;;;;;5.28;1.27;;;;;;;;;;5052672;28;20044;-76
2023/10/24 09:02:22;;;;;;;2.97;1.00;;;;;;;;;;5011198;28;20133;-76
2023/10/24 09:04:49;;;;;;;2.50;1.20;;;;;;;;;;5008330;28;20034;-76
2023/10/24 09:07:16;;;;;;;3.38;1.40;;;;;;;;;;4991738;28;20046;-75
2023/10/24 09:09:42;;;;;;;2.05;0.90;;;;;;;;;;4991274;28;20019;-76
2023/10/24 09:12:14;;;;;;;4.40;0.90;;;;;;;;;;4990468;28;20037;-75
2023/10/24 09:14:41;;;;;;;1.85;1.10;;;;;;;;;;5009991;28;20454;-75
2023/10/24 09:17:07;;;;;;;3.75;1.20;;;;;;;;;;4995582;28;20396;-75
2023/10/24 09:19:34;;;;;;;3.13;1.20;;;;;;;;;;5011299;28;20048;-75
2023/10/24 09:22:01;;;;;;;3.00;1.10;;;;;;;;;;5009300;28;20382;-75
2023/10/24 09:24:27;;;;;;;2.38;1.02;;;;;;;;;;5010799;28;20484;-75
2023/10/24 09:26:54;;;;;;;4.50;0.90;;;;;;;;;;4994193;28;20037;-75
2023/10/24 09:29:21;;;;;;;3.40;0.80;;;;;;;;;;4978187;28;20405;-75
2023/10/24 09:31:48;;;;;;;0.90;0.80;;;;;;;;;;5007623;28;20046;-76
2023/10/24 09:34:15;;;;;;;2.88;1.20;;;;;;;;;;4991171;28;20502;-75
2023/10/24 09:36:42;;;;;;;0.80;0.80;;;;;;;;;;5003008;28;20076;-75
2023/10/24 09:39:12;;;;;;;1.48;0.70;;;;;;;;;;5024668;28;20043;-75
2023/10/24 09:41:39;;;;;;;2.08;0.52;;;;;;;;;;5052619;28;20017;-75
2023/10/24 09:44:07;;;;;;;5.75;0.75;;;;;;;;;;5052632;28;20082;-75
2023/10/24 09:46:34;;;;;;;0.47;0.43;;;;;;;;;;5050261;28;20055;-75
2023/10/24 09:49:01;;;;;;;1.00;0.52;;;;;;;;;;5033243;28;20033;-75
2023/10/24 09:51:28;;;;;;;1.05;0.70;;;;;;;;;;5045768;28;20030;-75
2023/10/24 09:53:55;;;;;;;0.45;0.45;;;;;;;;;;5049956;28;20512;-75
2023/10/24 09:56:21;;;;;;;0.82;0.50;;;;;;;;;;5050261;28;20029;-75
2023/10/24 09:58:48;;;;;;;2.70;0.77;;;;;;;;;;5050616;28;20037;-75
2023/10/24 10:01:14;;;;;;;1.00;0.68;;;;;;;;;;5041396;28;20051;-76
2023/10/24 10:03:42;;;;;;;2.78;0.50;;;;;;;;;;5048452;28;20025;-75
2023/10/24 10:06:13;;;;;;;1.55;0.52;;;;;;;;;;5052196;28;20036;-75
2023/10/24 10:08:40;;;;;;;1.75;0.60;;;;;;;;;;5051500;28;20035;-75
2023/10/24 10:11:07;;;;;;;0.52;0.50;;;;;;;;;;5050242;28;20027;-76
2023/10/24 10:13:56;;;;;;;1.05;0.70;;;;;;;;;;5051353;28;20032;-76
2023/10/24 10:16:29;;;;;;;1.13;0.70;;;;;;;;;;5048909;28;20052;-75
2023/10/24 10:18:55;;;;;;;2.60;0.80;;;;;;;;;;5051732;28;20498;-75
2023/10/24 10:21:31;;;;;;;0.70;0.50;;;;;;;;;;5051131;28;20095;-75
2023/10/24 10:23:57;;;;;;;3.72;0.70;;;;;;;;;;5051275;28;20047;-75
2023/10/24 10:26:27;;;;;;;1.55;1.10;;;;;;;;;;5051884;28;20035;-75
2023/10/24 10:29:12;;;;;;;0.50;0.50;;;;;;;;;;5051397;28;20035;-75
2023/10/24 10:31:51;;;;;;;0.85;0.77;;;;;;;;;;5051467;28;20029;-75
2023/10/24 10:34:17;;;;;;;1.70;0.95;;;;;;;;;;5052001;28;20070;-75
2023/10/24 10:36:53;;;;;;;1.08;0.50;;;;;;;;;;5051698;28;20025;-75
2023/10/24 10:39:20;;;;;;;0.45;0.45;;;;;;;;;;5051466;28;20077;-76
2023/10/24 10:41:46;;;;;;;1.00;0.70;;;;;;;;;;5051560;28;20478;-75
2023/10/24 10:44:31;;;;;;;1.35;0.50;;;;;;;;;;5051722;28;20029;-75
2023/10/24 10:47:01;;;;;;;0.95;0.60;;;;;;;;;;5051518;28;20035;-75
2023/10/24 10:49:38;;;;;;;0.65;0.30;;;;;;;;;;5050182;28;20033;-75
2023/10/24 10:52:09;;;;;;;2.33;1.05;;;;;;;;;;5051908;28;20030;-75
2023/10/24 10:54:45;;;;;;;1.05;0.60;;;;;;;;;;5051206;28;20047;-75
2023/10/24 10:57:15;;;;;;;1.95;0.60;;;;;;;;;;5051387;28;20505;-75
2023/10/24 11:00:07;;;;;;;2.67;1.20;;;;;;;;;;5051104;28;20051;-76
2023/10/24 11:02:44;;;;;;;1.50;1.17;;;;;;;;;;5051508;28;20418;-76
2023/10/24 11:05:28;;;;;;;6.20;2.65;;;;;;;;;;5051391;28;20461;-76
2023/10/24 11:07:58;;;;;;;6.57;3.45;;;;;;;;;;5049879;28;20025;-75
2023/10/24 11:10:24;;;;;;;20.92;5.82;;;;;;;;;;5051596;28;20025;-75
2023/10/24 11:12:50;;;;;;;6.43;2.90;;;;;;;;;;5050821;28;20023;-76
2023/10/24 11:15:26;;;;;;;3.20;1.70;;;;;;;;;;5049608;28;20504;-75
2023/10/24 11:17:52;;;;;;;2.63;0.90;;;;;;;;;;5051472;28;20047;-75
2023/10/24 11:20:19;;;;;;;0.70;0.60;;;;;;;;;;5051509;28;20021;-76
2023/10/24 11:22:45;;;;;;;4.55;0.65;;;;;;;;;;5051551;28;20029;-75
2023/10/24 11:25:12;;;;;;;2.20;0.60;;;;;;;;;;5051706;28;20025;-75
2023/10/24 11:27:39;;;;;;;1.35;0.55;;;;;;;;;;5051138;28;20047;-75
2023/10/24 11:30:06;;;;;;;4.65;0.40;;;;;;;;;;5051647;28;20098;-76
2023/10/24 11:32:33;;;;;;;0.68;0.40;;;;;;;;;;5051655;28;20028;-75
2023/10/24 11:34:59;;;;;;;1.00;0.43;;;;;;;;;;5048363;28;20417;-76
2023/10/24 11:37:27;;;;;;;0.40;0.40;;;;;;;;;;5036579;28;20030;-76
2023/10/24 11:39:54;;;;;;;0.55;0.40;;;;;;;;;;5051545;28;20029;-75
2023/10/24 11:42:20;;;;;;;0.90;0.30;;;;;;;;;;5053367;28;20013;-75
2023/10/24 11:44:46;;;;;;;0.40;0.40;;;;;;;;;;5050935;28;20094;-75
2023/10/24 11:47:16;;;;;;;2.58;0.77;;;;;;;;;;5052296;28;20021;-75
2023/10/24 11:49:46;;;;;;;1.60;0.73;;;;;;;;;;5052102;28;20025;-75
2023/10/24 11:52:12;;;;;;;0.57;0.50;;;;;;;;;;5041836;28;20047;-76
2023/10/24 11:54:39;;;;;;;3.45;0.30;;;;;;;;;;5037699;28;20029;-76
2023/10/24 11:57:06;;;;;;;0.73;0.50;;;;;;;;;;5055856;28;20093;-74
2023/10/24 11:59:36;;;;;;;0.55;0.50;;;;;;;;;;5054603;28;20052;-76
2023/10/24 12:02:03;;;;;;;0.70;0.52;;;;;;;;;;5051533;28;20055;-75
2023/10/24 12:04:30;;;;;;;0.75;0.50;;;;;;;;;;5034739;28;20032;-76
2023/10/24 12:07:08;;;;;;;0.52;0.40;;;;;;;;;;5035496;28;20036;-76
2023/10/24 12:09:35;;;;;;;0.98;0.40;;;;;;;;;;5034147;28;20444;-76
2023/10/24 12:12:02;;;;;;;2.15;0.50;;;;;;;;;;5034426;28;20231;-75
2023/10/24 12:14:28;;;;;;;1.45;0.50;;;;;;;;;;5047605;28;20036;-76
2023/10/24 12:16:54;;;;;;;0.80;0.40;;;;;;;;;;5041973;28;20029;-76
2023/10/24 12:19:21;;;;;;;0.40;0.30;;;;;;;;;;5044929;28;20045;-75
2023/10/24 12:21:47;;;;;;;1.02;0.40;;;;;;;;;;5049337;28;20397;-76
2023/10/24 12:24:13;;;;;;;1.30;0.63;;;;;;;;;;5035397;28;20025;-75
2023/10/24 12:26:40;;;;;;;2.25;0.75;;;;;;;;;;5040089;28;20013;-75
2023/10/24 12:29:10;;;;;;;0.88;0.38;;;;;;;;;;5052845;28;20025;-76
2023/10/24 12:31:39;;;;;;;0.93;0.38;;;;;;;;;;5053508;28;20036;-76
2023/10/24 12:34:08;;;;;;;1.92;0.50;;;;;;;;;;5054161;28;20033;-75
2023/10/24 12:36:34;;;;;;;1.65;0.30;;;;;;;;;;5052871;28;20102;-75
2023/10/24 12:39:01;;;;;;;1.63;0.45;;;;;;;;;;5043159;28;20041;-75
2023/10/24 12:41:27;;;;;;;1.63;0.40;;;;;;;;;;5053943;28;20021;-75
2023/10/24 12:43:53;;;;;;;1.55;0.60;;;;;;;;;;5051830;28;20355;-75
2023/10/24 12:46:20;;;;;;;0.82;0.60;;;;;;;;;;5050354;28;20115;-75
2023/10/24 12:48:46;;;;;;;0.82;0.60;;;;;;;;;;5053249;28;20573;-75
2023/10/24 12:51:13;;;;;;;0.43;0.40;;;;;;;;;;5052806;28;20481;-76
2023/10/24 12:53:40;;;;;;;0.60;0.47;;;;;;;;;;5052342;28;20032;-76
2023/10/24 12:56:07;;;;;;;1.35;0.60;;;;;;;;;;5033862;28;20550;-76
2023/10/24 12:58:34;;;;;;;0.75;0.60;;;;;;;;;;5033579;28;20041;-80
2023/10/24 13:01:00;;;;;;;0.95;0.50;;;;;;;;;;5052556;28;20031;-76
2023/10/24 13:03:26;;;;;;;0.60;0.40;;;;;;;;;;5053226;28;20039;-76
2023/10/24 13:05:53;;;;;;;1.20;0.50;;;;;;;;;;5052517;28;20456;-78
2023/10/24 13:08:19;;;;;;;0.30;0.30;;;;;;;;;;5051473;28;20482;-75
2023/10/24 13:10:47;;;;;;;0.50;0.38;;;;;;;;;;5041754;28;20017;-75
2023/10/24 13:13:13;;;;;;;0.95;0.40;;;;;;;;;;5048889;28;20040;-74
2023/10/24 13:15:40;;;;;;;1.95;0.50;;;;;;;;;;5052440;28;20031;-75
2023/10/24 13:18:06;;;;;;;1.13;0.43;;;;;;;;;;5045939;28;20409;-73
2023/10/24 13:20:32;;;;;;;1.75;0.50;;;;;;;;;;5047497;28;20595;-73
2023/10/24 13:23:02;;;;;;;0.90;0.68;;;;;;;;;;5043102;28;20035;-75
2023/10/24 13:25:29;;;;;;;0.63;0.43;;;;;;;;;;5052805;28;20013;-74
2023/10/24 13:27:56;;;;;;;0.75;0.52;;;;;;;;;;5050818;28;20025;-75
2023/10/24 13:30:22;;;;;;;0.88;0.50;;;;;;;;;;5051519;28;20027;-74
2023/10/24 13:32:48;;;;;;;2.35;0.70;;;;;;;;;;5051376;28;20029;-75
2023/10/24 13:35:15;;;;;;;1.38;0.63;;;;;;;;;;5052418;28;20037;-75
2023/10/24 13:37:41;;;;;;;2.97;0.57;;;;;;;;;;5051377;28;20025;-74
2023/10/24 13:40:08;;;;;;;1.48;0.70;;;;;;;;;;5039253;28;20038;-75
2023/10/24 13:42:35;;;;;;;2.40;0.82;;;;;;;;;;5047213;28;20547;-75
2023/10/24 13:45:01;;;;;;;1.45;0.60;;;;;;;;;;5050730;28;20021;-75
2023/10/24 13:47:27;;;;;;;1.77;0.52;;;;;;;;;;5048265;28;20033;-75
2023/10/24 13:49:54;;;;;;;2.17;0.55;;;;;;;;;;5051457;28;20555;-74
2023/10/24 13:52:20;;;;;;;0.47;0.40;;;;;;;;;;5038466;28;20064;-75
2023/10/24 13:54:47;;;;;;;0.65;0.40;;;;;;;;;;5033418;28;20033;-75
2023/10/24 13:57:13;;;;;;;1.90;0.30;;;;;;;;;;5042922;28;20040;-74
2023/10/24 13:59:41;;;;;;;1.25;0.63;;;;;;;;;;5045180;28;20041;-75
2023/10/24 14:02:07;;;;;;;0.98;0.50;;;;;;;;;;5046963;28;20029;-75
2023/10/24 14:04:33;;;;;;;0.40;0.30;;;;;;;;;;5034635;28;20033;-75
2023/10/24 14:07:00;;;;;;;0.30;0.22;;;;;;;;;;5049095;28;20397;-74
2023/10/24 14:09:26;;;;;;;0.88;0.40;;;;;;;;;;5052137;28;20033;-74
2023/10/24 14:11:53;;;;;;;0.35;0.35;;;;;;;;;;5049938;28;20572;-74
2023/10/24 14:14:19;;;;;;;1.65;0.50;;;;;;;;;;5050664;28;20039;-74
2023/10/24 14:16:45;;;;;;;5.55;2.08;;;;;;;;;;5047652;28;20049;-74
2023/10/24 14:19:12;;;;;;;3.35;1.13;;;;;;;;;;5049158;28;20638;-74
2023/10/24 14:21:38;;;;;;;3.20;1.30;;;;;;;;;;5039940;28;20088;-74
2023/10/24 14:24:05;;;;;;;1.65;0.70;;;;;;;;;;5032504;28;20029;-74
2023/10/24 14:26:31;;;;;;;3.00;1.45;;;;;;;;;;5038272;28;20017;-74
2023/10/24 14:28:57;;;;;;;1.38;0.75;;;;;;;;;;5050296;28;20493;-74
2023/10/24 14:31:24;;;;;;;1.50;0.80;;;;;;;;;;5037475;28;20029;-74
2023/10/24 14:33:50;;;;;;;1.48;1.00;;;;;;;;;;5043022;28;20035;-74
2023/10/24 14:36:17;;;;;;;0.75;0.50;;;;;;;;;;5037227;28;20033;-74
2023/10/24 14:38:43;;;;;;;1.95;0.70;;;;;;;;;;5046975;28;20037;-74
2023/10/24 14:41:10;;;;;;;1.42;0.60;;;;;;;;;;5051078;28;20025;-74